Time;durP1;ratioP1;P1;durP2;ratioP2;P2;SDS_P1;SDS_P2;PMS_P1;PMS_P2;Temp;Humidity;BMP_temperature;BMP_pressure;BME280_temperature;BME280_humidity;BME280_pressure;Samples;Min_cycle;Max_cycle;Signal;HPM_P1;HPM_P2
2021/06/11 00:02:11;;;;;;;31.52;22.73;;;;;;;;;;5057351;27;39554;-82
2021/06/11 00:04:37;;;;;;;27.55;20.73;;;;;;;;;;5026459;28;38928;-81
2021/06/11 00:07:04;;;;;;;27.13;21.52;;;;;;;;;;5032110;28;38248;-84
2021/06/11 00:09:30;;;;;;;35.20;23.27;;;;;;;;;;5030025;28;36169;-82
2021/06/11 00:11:57;;;;;;;32.65;22.60;;;;;;;;;;5028783;28;39245;-83
2021/06/11 00:14:24;;;;;;;32.92;22.58;;;;;;;;;;5027425;28;39786;-81
2021/06/11 00:16:50;;;;;;;35.55;23.88;;;;;;;;;;5054996;27;38440;-81
2021/06/11 00:19:17;;;;;;;33.90;23.02;;;;;;;;;;5028213;28;37875;-81
2021/06/11 00:21:43;;;;;;;37.15;24.48;;;;;;;;;;5027083;27;38874;-81
2021/06/11 00:24:10;;;;;;;38.13;24.00;;;;;;;;;;5027839;28;39558;-82
2021/06/11 00:26:36;;;;;;;35.33;23.77;;;;;;;;;;5019792;28;36752;-81
2021/06/11 00:29:03;;;;;;;33.22;23.15;;;;;;;;;;5041515;28;37496;-83
2021/06/11 00:31:29;;;;;;;33.22;23.92;;;;;;;;;;5035556;28;39434;-80
2021/06/11 00:33:56;;;;;;;31.48;22.33;;;;;;;;;;5028492;28;37612;-81
2021/06/11 00:36:22;;;;;;;34.47;23.50;;;;;;;;;;5028154;28;38613;-80
2021/06/11 00:38:49;;;;;;;33.95;23.33;;;;;;;;;;5029594;28;37859;-81
2021/06/11 00:41:16;;;;;;;32.35;22.48;;;;;;;;;;5050798;27;39725;-81
2021/06/11 00:43:42;;;;;;;33.60;21.75;;;;;;;;;;5033577;28;39422;-80
2021/06/11 00:46:10;;;;;;;32.63;22.17;;;;;;;;;;5036362;28;38737;-81
2021/06/11 00:48:36;;;;;;;29.50;20.83;;;;;;;;;;5030579;28;39461;-82
2021/06/11 00:51:02;;;;;;;32.10;22.60;;;;;;;;;;5029470;28;40683;-83
2021/06/11 00:53:29;;;;;;;36.75;23.65;;;;;;;;;;5035033;28;38929;-82
2021/06/11 00:55:55;;;;;;;33.50;22.27;;;;;;;;;;5036056;28;38389;-82
2021/06/11 00:58:22;;;;;;;31.88;21.52;;;;;;;;;;5035551;28;38149;-82
2021/06/11 01:00:48;;;;;;;29.08;20.27;;;;;;;;;;5032464;28;42286;-82
2021/06/11 01:03:17;;;;;;;30.35;20.05;;;;;;;;;;5029915;28;38219;-82
2021/06/11 01:05:44;;;;;;;30.92;19.92;;;;;;;;;;5024315;28;39217;-81
2021/06/11 01:08:11;;;;;;;29.90;20.40;;;;;;;;;;5036262;28;37381;-83
2021/06/11 01:10:38;;;;;;;28.35;19.15;;;;;;;;;;5036313;28;39553;-82
2021/06/11 01:13:04;;;;;;;31.35;20.20;;;;;;;;;;5029127;28;39337;-82
2021/06/11 01:15:31;;;;;;;28.98;20.00;;;;;;;;;;5029762;28;38955;-82
2021/06/11 01:17:57;;;;;;;32.63;21.83;;;;;;;;;;5028542;28;37712;-81
2021/06/11 01:20:24;;;;;;;28.67;19.23;;;;;;;;;;5025892;28;38986;-82
2021/06/11 01:22:54;;;;;;;32.70;22.83;;;;;;;;;;5022966;28;38982;-82
2021/06/11 01:25:33;;;;;;;32.90;22.10;;;;;;;;;;5035853;28;39425;-81
2021/06/11 01:28:01;;;;;;;34.65;21.95;;;;;;;;;;5029827;28;39762;-80
2021/06/11 01:30:27;;;;;;;33.88;22.02;;;;;;;;;;5060433;28;46867;-81
2021/06/11 01:32:55;;;;;;;34.58;22.33;;;;;;;;;;5040100;28;38710;-82
2021/06/11 01:35:25;;;;;;;34.45;21.80;;;;;;;;;;5031703;27;38697;-82
2021/06/11 01:37:57;;;;;;;34.78;21.83;;;;;;;;;;5041795;28;37056;-85
2021/06/11 01:40:24;;;;;;;26.00;17.58;;;;;;;;;;5057043;27;39803;-83
2021/06/11 01:42:50;;;;;;;30.38;19.63;;;;;;;;;;5052261;27;39462;-83
2021/06/11 01:45:17;;;;;;;29.95;18.95;;;;;;;;;;5048900;27;38214;-82
2021/06/11 01:47:45;;;;;;;28.38;19.25;;;;;;;;;;5055205;27;36679;-82
2021/06/11 01:50:14;;;;;;;27.70;18.15;;;;;;;;;;5047204;28;37701;-82
2021/06/11 01:52:41;;;;;;;28.83;19.55;;;;;;;;;;5049486;28;39521;-83
2021/06/11 01:55:09;;;;;;;30.67;20.90;;;;;;;;;;5045016;27;38421;-82
2021/06/11 01:57:36;;;;;;;30.73;21.60;;;;;;;;;;5048715;28;37123;-85
2021/06/11 02:00:04;;;;;;;29.92;22.70;;;;;;;;;;5062123;28;38129;-83
2021/06/11 02:02:31;;;;;;;31.10;23.10;;;;;;;;;;5046462;28;38185;-83
2021/06/11 02:04:57;;;;;;;33.50;24.48;;;;;;;;;;5063990;28;38823;-82
2021/06/11 02:07:25;;;;;;;30.17;23.67;;;;;;;;;;5050889;27;37332;-84
2021/06/11 02:09:51;;;;;;;29.17;22.30;;;;;;;;;;5051816;28;39639;-82
2021/06/11 02:12:18;;;;;;;30.63;23.42;;;;;;;;;;5043673;28;37257;-84
2021/06/11 02:14:45;;;;;;;28.25;22.65;;;;;;;;;;5084455;28;39109;-84
2021/06/11 02:17:12;;;;;;;27.88;22.45;;;;;;;;;;5046197;27;37827;-84
2021/06/11 02:19:39;;;;;;;29.92;24.88;;;;;;;;;;5065691;27;40777;-84
2021/06/11 02:22:06;;;;;;;32.85;24.67;;;;;;;;;;5050730;28;39309;-83
2021/06/11 02:24:33;;;;;;;33.60;26.73;;;;;;;;;;5045491;27;38287;-83
2021/06/11 02:27:01;;;;;;;31.27;23.58;;;;;;;;;;5030992;28;37749;-84
2021/06/11 02:29:27;;;;;;;34.38;26.00;;;;;;;;;;5028816;28;48618;-82
2021/06/11 02:31:54;;;;;;;30.48;24.85;;;;;;;;;;5042017;28;39275;-83
2021/06/11 02:34:20;;;;;;;28.15;23.48;;;;;;;;;;5026750;28;37760;-82
2021/06/11 02:36:47;;;;;;;29.45;24.30;;;;;;;;;;5026009;27;36996;-82
2021/06/11 02:39:13;;;;;;;31.75;23.98;;;;;;;;;;5031887;28;39603;-82
2021/06/11 02:41:45;;;;;;;32.63;25.15;;;;;;;;;;5021704;28;38497;-81
2021/06/11 02:44:12;;;;;;;29.58;24.25;;;;;;;;;;5021908;28;38239;-81
2021/06/11 02:46:46;;;;;;;27.80;23.17;;;;;;;;;;5027472;27;40167;-82
2021/06/11 02:49:24;;;;;;;31.38;24.42;;;;;;;;;;5024245;28;39829;-81
2021/06/11 02:51:52;;;;;;;30.20;24.08;;;;;;;;;;5023262;28;38355;-81
2021/06/11 02:54:28;;;;;;;26.05;21.55;;;;;;;;;;5043169;27;38021;-82
2021/06/11 02:56:58;;;;;;;27.70;22.25;;;;;;;;;;5056738;27;37263;-84
2021/06/11 02:59:26;;;;;;;30.77;23.25;;;;;;;;;;5050278;28;39429;-82
2021/06/11 03:01:56;;;;;;;26.83;21.60;;;;;;;;;;5043161;28;37967;-83
2021/06/11 03:04:24;;;;;;;25.98;21.35;;;;;;;;;;5062826;28;37016;-82
2021/06/11 03:06:51;;;;;;;30.35;23.30;;;;;;;;;;5043117;28;38397;-82
2021/06/11 03:09:21;;;;;;;29.58;22.13;;;;;;;;;;5046683;28;39787;-82
2021/06/11 03:11:48;;;;;;;24.73;21.65;;;;;;;;;;5035889;27;39559;-82
2021/06/11 03:14:16;;;;;;;24.38;20.55;;;;;;;;;;5025012;28;38428;-81
2021/06/11 03:16:44;;;;;;;32.47;24.02;;;;;;;;;;5025933;28;37282;-82
2021/06/11 03:19:11;;;;;;;28.00;23.40;;;;;;;;;;5046035;28;39922;-81
2021/06/11 03:21:46;;;;;;;29.67;23.25;;;;;;;;;;5050206;28;40120;-83
2021/06/11 03:24:21;;;;;;;29.65;21.67;;;;;;;;;;5054968;28;38348;-84
2021/06/11 03:27:02;;;;;;;27.80;21.48;;;;;;;;;;5047878;28;35940;-82
2021/06/11 03:29:30;;;;;;;29.90;23.55;;;;;;;;;;5025922;28;46964;-81
2021/06/11 03:31:59;;;;;;;27.85;21.23;;;;;;;;;;5022174;28;39493;-81
2021/06/11 03:34:27;;;;;;;32.83;23.90;;;;;;;;;;5023263;27;38258;-81
2021/06/11 03:36:55;;;;;;;34.25;25.35;;;;;;;;;;5023851;28;37481;-81
2021/06/11 03:39:29;;;;;;;37.75;26.50;;;;;;;;;;5039634;28;38623;-82
2021/06/11 03:41:55;;;;;;;41.90;28.80;;;;;;;;;;5039895;28;39713;-81
2021/06/11 03:44:22;;;;;;;40.60;29.48;;;;;;;;;;5032722;28;39143;-82
2021/06/11 03:46:49;;;;;;;45.72;31.73;;;;;;;;;;5027635;27;36902;-82
2021/06/11 03:49:19;;;;;;;41.40;29.45;;;;;;;;;;5037441;28;39760;-80
2021/06/11 03:51:45;;;;;;;48.50;32.60;;;;;;;;;;5040005;28;38973;-81
2021/06/11 03:54:13;;;;;;;38.60;28.13;;;;;;;;;;5024624;28;38470;-81
2021/06/11 03:56:40;;;;;;;42.80;30.58;;;;;;;;;;5061885;27;38030;-81
2021/06/11 03:59:11;;;;;;;49.15;35.85;;;;;;;;;;5032322;28;40977;-82
2021/06/11 04:01:41;;;;;;;45.22;32.42;;;;;;;;;;5035961;28;38672;-81
2021/06/11 04:04:07;;;;;;;45.30;31.88;;;;;;;;;;5044013;28;39523;-81
2021/06/11 04:06:39;;;;;;;50.50;34.13;;;;;;;;;;5047005;28;37045;-81
2021/06/11 04:09:07;;;;;;;42.40;32.13;;;;;;;;;;5043509;28;39603;-82
2021/06/11 04:11:37;;;;;;;42.97;31.83;;;;;;;;;;5012082;28;39151;-82
2021/06/11 04:14:04;;;;;;;45.28;33.28;;;;;;;;;;5026730;28;38041;-81
2021/06/11 04:16:45;;;;;;;42.50;32.95;;;;;;;;;;5037423;28;35950;-80
2021/06/11 04:19:16;;;;;;;47.10;34.25;;;;;;;;;;5031160;28;40013;-81
2021/06/11 04:21:42;;;;;;;42.20;31.95;;;;;;;;;;5028485;28;36272;-81
2021/06/11 04:24:10;;;;;;;38.67;29.90;;;;;;;;;;5029161;28;38892;-81
2021/06/11 04:26:40;;;;;;;51.38;35.50;;;;;;;;;;5023113;28;38943;-82
2021/06/11 04:29:10;;;;;;;44.30;32.65;;;;;;;;;;5027748;28;39877;-82
2021/06/11 04:31:37;;;;;;;46.22;34.92;;;;;;;;;;5025788;28;37123;-82
2021/06/11 04:34:04;;;;;;;50.42;35.88;;;;;;;;;;5027373;28;38567;-82
2021/06/11 04:36:31;;;;;;;43.97;32.30;;;;;;;;;;5028022;28;37389;-81
2021/06/11 04:38:59;;;;;;;53.97;37.40;;;;;;;;;;5043051;28;38379;-83
2021/06/11 04:41:29;;;;;;;48.40;36.25;;;;;;;;;;5023549;28;40151;-81
2021/06/11 04:43:59;;;;;;;47.95;35.55;;;;;;;;;;5030821;28;39920;-80
2021/06/11 04:46:26;;;;;;;39.33;30.92;;;;;;;;;;5031024;27;36701;-81
2021/06/11 04:48:53;;;;;;;48.85;33.67;;;;;;;;;;5024831;28;39879;-82
2021/06/11 04:51:19;;;;;;;49.90;33.55;;;;;;;;;;5040184;28;38579;-81
2021/06/11 04:53:46;;;;;;;45.95;31.60;;;;;;;;;;5028773;28;38998;-82
2021/06/11 04:56:13;;;;;;;50.63;33.83;;;;;;;;;;5030657;28;37170;-81
2021/06/11 04:58:40;;;;;;;47.90;33.78;;;;;;;;;;5028800;28;41019;-82
2021/06/11 05:01:07;;;;;;;45.22;32.20;;;;;;;;;;5025727;28;38849;-82
2021/06/11 05:03:34;;;;;;;48.47;32.53;;;;;;;;;;5028832;28;39450;-81
2021/06/11 05:06:01;;;;;;;47.50;31.77;;;;;;;;;;5028324;28;37325;-82
2021/06/11 05:08:28;;;;;;;42.30;30.83;;;;;;;;;;5028680;28;49056;-81
2021/06/11 05:10:55;;;;;;;42.47;30.48;;;;;;;;;;5036492;28;40102;-81
2021/06/11 05:13:21;;;;;;;41.83;30.23;;;;;;;;;;5040356;28;36402;-81
2021/06/11 05:15:48;;;;;;;44.28;30.05;;;;;;;;;;5043718;28;38376;-82
2021/06/11 05:18:14;;;;;;;42.53;31.80;;;;;;;;;;5052046;27;39758;-82
2021/06/11 05:20:41;;;;;;;49.38;33.75;;;;;;;;;;5052329;27;38384;-82
2021/06/11 05:23:07;;;;;;;40.58;29.83;;;;;;;;;;5051379;27;39031;-82
2021/06/11 05:25:34;;;;;;;37.92;28.48;;;;;;;;;;5046808;28;36837;-81
2021/06/11 05:28:01;;;;;;;40.38;30.85;;;;;;;;;;5078887;27;40079;-81
2021/06/11 05:30:27;;;;;;;38.70;29.65;;;;;;;;;;5037449;28;46399;-82
2021/06/11 05:32:55;;;;;;;39.30;29.83;;;;;;;;;;5026379;28;40772;-81
2021/06/11 05:35:22;;;;;;;36.67;27.58;;;;;;;;;;5033085;28;38077;-82
2021/06/11 05:37:48;;;;;;;34.20;25.40;;;;;;;;;;5037228;27;38514;-82
2021/06/11 05:40:15;;;;;;;26.13;21.58;;;;;;;;;;5027577;28;40137;-82
2021/06/11 05:42:42;;;;;;;22.58;18.38;;;;;;;;;;5036186;28;38788;-82
2021/06/11 05:45:08;;;;;;;24.58;18.80;;;;;;;;;;5033619;28;37667;-82
2021/06/11 05:47:39;;;;;;;17.88;14.48;;;;;;;;;;5031125;28;37358;-81
2021/06/11 05:50:06;;;;;;;16.23;14.50;;;;;;;;;;5030020;27;39594;-81
2021/06/11 05:52:33;;;;;;;20.50;15.82;;;;;;;;;;5047757;28;39263;-81
2021/06/11 05:55:00;;;;;;;17.35;14.75;;;;;;;;;;5045553;28;41038;-82
2021/06/11 05:57:26;;;;;;;15.80;14.07;;;;;;;;;;5047715;27;39015;-83
2021/06/11 05:59:55;;;;;;;15.18;13.00;;;;;;;;;;5055469;27;38704;-81
2021/06/11 06:02:24;;;;;;;17.73;14.70;;;;;;;;;;5047510;27;38091;-83
2021/06/11 06:04:51;;;;;;;17.55;14.75;;;;;;;;;;5052696;28;37862;-82
2021/06/11 06:07:17;;;;;;;15.27;13.05;;;;;;;;;;5048762;27;39089;-83
2021/06/11 06:09:44;;;;;;;16.50;12.77;;;;;;;;;;5052503;28;39910;-83
2021/06/11 06:12:11;;;;;;;14.75;12.35;;;;;;;;;;5050838;28;38339;-83
2021/06/11 06:14:38;;;;;;;11.30;9.65;;;;;;;;;;5047471;27;37003;-83
2021/06/11 06:17:04;;;;;;;12.20;10.40;;;;;;;;;;5047572;27;41190;-81
2021/06/11 06:19:31;;;;;;;9.35;8.23;;;;;;;;;;5056162;27;38582;-82
2021/06/11 06:21:58;;;;;;;9.68;8.40;;;;;;;;;;5062476;28;39736;-81
2021/06/11 06:24:24;;;;;;;10.30;8.70;;;;;;;;;;5058132;28;37888;-82
2021/06/11 06:26:51;;;;;;;10.82;9.63;;;;;;;;;;5059860;28;39231;-82
2021/06/11 06:29:17;;;;;;;10.05;9.02;;;;;;;;;;5064456;27;38357;-83
2021/06/11 06:31:44;;;;;;;9.20;7.82;;;;;;;;;;5062038;28;40102;-82
2021/06/11 06:34:10;;;;;;;9.50;8.07;;;;;;;;;;5066013;27;38704;-82
2021/06/11 06:36:37;;;;;;;8.48;7.40;;;;;;;;;;5060255;28;43133;-82
2021/06/11 06:39:07;;;;;;;10.52;7.97;;;;;;;;;;5052873;27;39471;-81
2021/06/11 06:41:33;;;;;;;10.27;8.30;;;;;;;;;;5066621;28;38858;-82
2021/06/11 06:44:00;;;;;;;8.68;7.78;;;;;;;;;;5069435;28;37050;-82
2021/06/11 06:46:26;;;;;;;8.30;7.40;;;;;;;;;;5057100;27;39556;-82
2021/06/11 06:48:53;;;;;;;9.70;7.95;;;;;;;;;;5068896;28;39549;-80
2021/06/11 06:51:20;;;;;;;8.02;7.05;;;;;;;;;;5071536;27;38083;-81
2021/06/11 06:53:47;;;;;;;6.97;6.03;;;;;;;;;;5066473;28;38075;-82
2021/06/11 06:56:14;;;;;;;7.63;6.25;;;;;;;;;;5057905;27;39509;-82
2021/06/11 06:58:40;;;;;;;7.65;6.20;;;;;;;;;;5053275;28;39364;-82
2021/06/11 07:01:07;;;;;;;10.70;7.50;;;;;;;;;;5053485;27;38411;-82
2021/06/11 07:03:33;;;;;;;8.15;6.50;;;;;;;;;;5061743;27;36890;-81
2021/06/11 07:06:00;;;;;;;7.38;6.57;;;;;;;;;;5056400;28;38826;-81
2021/06/11 07:08:30;;;;;;;9.52;7.22;;;;;;;;;;5060161;28;39992;-83
2021/06/11 07:10:57;;;;;;;7.72;6.93;;;;;;;;;;5057799;28;39424;-83
2021/06/11 07:13:24;;;;;;;8.65;7.65;;;;;;;;;;5056167;27;37063;-81
2021/06/11 07:15:50;;;;;;;7.40;6.65;;;;;;;;;;5056336;27;39746;-80
2021/06/11 07:18:18;;;;;;;9.15;7.80;;;;;;;;;;5080571;27;39825;-82
2021/06/11 07:20:45;;;;;;;8.77;7.43;;;;;;;;;;5058006;27;36694;-81
2021/06/11 07:23:12;;;;;;;7.63;6.93;;;;;;;;;;5058076;27;37867;-81
2021/06/11 07:25:38;;;;;;;9.15;8.20;;;;;;;;;;5058370;27;40550;-82
2021/06/11 07:28:05;;;;;;;7.97;7.18;;;;;;;;;;5054555;27;38537;-81
2021/06/11 07:30:31;;;;;;;9.07;7.88;;;;;;;;;;5054570;27;38975;-83
2021/06/11 07:32:58;;;;;;;10.07;8.52;;;;;;;;;;5062058;28;37064;-82
2021/06/11 07:35:25;;;;;;;9.15;7.30;;;;;;;;;;5062290;27;40681;-82
2021/06/11 07:37:51;;;;;;;8.57;7.47;;;;;;;;;;5060324;28;39836;-82
2021/06/11 07:40:18;;;;;;;7.32;6.60;;;;;;;;;;5061082;27;39031;-81
2021/06/11 07:42:44;;;;;;;7.90;6.10;;;;;;;;;;5058871;28;36958;-79
2021/06/11 07:45:11;;;;;;;7.55;6.43;;;;;;;;;;5060956;27;40805;-82
2021/06/11 07:47:37;;;;;;;6.05;5.45;;;;;;;;;;5072318;27;38087;-80
2021/06/11 07:50:05;;;;;;;7.47;6.72;;;;;;;;;;5064697;27;37741;-81
2021/06/11 07:52:34;;;;;;;7.82;7.00;;;;;;;;;;5061507;28;47874;-80
2021/06/11 07:55:01;;;;;;;8.20;7.15;;;;;;;;;;5060151;28;39789;-80
2021/06/11 07:57:27;;;;;;;7.20;6.45;;;;;;;;;;5062790;27;49085;-79
2021/06/11 07:59:54;;;;;;;9.25;7.40;;;;;;;;;;5055582;28;37093;-78
2021/06/11 08:02:20;;;;;;;7.55;6.78;;;;;;;;;;5056526;27;37036;-79
2021/06/11 08:04:46;;;;;;;8.48;7.00;;;;;;;;;;5062797;28;39265;-79
2021/06/11 08:07:13;;;;;;;7.18;6.47;;;;;;;;;;5062068;27;39513;-79
2021/06/11 08:09:40;;;;;;;7.57;6.75;;;;;;;;;;5065682;28;38025;-79
2021/06/11 08:12:06;;;;;;;9.63;7.88;;;;;;;;;;5061209;27;37260;-79
2021/06/11 08:14:33;;;;;;;8.18;7.20;;;;;;;;;;5062615;28;40441;-79
2021/06/11 08:16:59;;;;;;;7.68;6.90;;;;;;;;;;5058390;28;39767;-79
2021/06/11 08:19:25;;;;;;;8.00;6.97;;;;;;;;;;5056325;28;38373;-79
2021/06/11 08:21:52;;;;;;;8.02;7.20;;;;;;;;;;5066663;28;36610;-80
2021/06/11 08:24:18;;;;;;;7.35;6.65;;;;;;;;;;5056705;27;40039;-79
2021/06/11 08:26:45;;;;;;;7.05;6.35;;;;;;;;;;5055194;28;39472;-80
2021/06/11 08:29:11;;;;;;;8.57;7.15;;;;;;;;;;5072800;27;38151;-78
2021/06/11 08:31:37;;;;;;;8.23;7.40;;;;;;;;;;5054736;28;37193;-79
2021/06/11 08:34:04;;;;;;;7.25;6.55;;;;;;;;;;5066613;27;40010;-80
2021/06/11 08:36:30;;;;;;;6.22;5.60;;;;;;;;;;5068645;28;39011;-80
2021/06/11 08:38:57;;;;;;;8.80;6.85;;;;;;;;;;5066023;27;38203;-81
2021/06/11 08:41:24;;;;;;;7.07;6.03;;;;;;;;;;5061199;27;37900;-79
2021/06/11 08:43:50;;;;;;;7.18;6.47;;;;;;;;;;5061140;28;38484;-79
2021/06/11 08:46:21;;;;;;;8.68;7.30;;;;;;;;;;5062968;27;39035;-81
2021/06/11 08:48:47;;;;;;;7.13;6.43;;;;;;;;;;5061264;28;38379;-80
2021/06/11 08:51:14;;;;;;;9.10;8.20;;;;;;;;;;5054320;28;35746;-79
2021/06/11 08:53:40;;;;;;;8.32;7.53;;;;;;;;;;5075599;28;38713;-80
2021/06/11 08:56:07;;;;;;;8.02;6.90;;;;;;;;;;5060045;27;39803;-80
2021/06/11 08:58:37;;;;;;;7.22;6.15;;;;;;;;;;5058862;28;38317;-79
2021/06/11 09:01:04;;;;;;;7.95;6.80;;;;;;;;;;5060893;27;38015;-82
2021/06/11 09:03:35;;;;;;;8.05;6.97;;;;;;;;;;5072686;27;38891;-82
2021/06/11 09:06:02;;;;;;;9.07;8.17;;;;;;;;;;5066614;27;39388;-82
2021/06/11 09:08:29;;;;;;;7.50;6.70;;;;;;;;;;5067137;28;38098;-82
2021/06/11 09:11:18;;;;;;;10.10;8.18;;;;;;;;;;5068202;28;35621;-82
2021/06/11 09:13:47;;;;;;;8.20;7.40;;;;;;;;;;5058738;27;48700;-82
2021/06/11 09:16:27;;;;;;;8.73;7.85;;;;;;;;;;5059091;27;38896;-79
2021/06/11 09:18:54;;;;;;;8.85;7.95;;;;;;;;;;5065352;28;38619;-79
2021/06/11 09:21:24;;;;;;;8.27;7.47;;;;;;;;;;5045514;28;37262;-80
2021/06/11 09:24:11;;;;;;;10.98;9.40;;;;;;;;;;5055374;28;39143;-79
2021/06/11 09:26:38;;;;;;;10.27;9.15;;;;;;;;;;5057630;27;48846;-79
2021/06/11 09:29:17;;;;;;;10.07;8.98;;;;;;;;;;5051630;27;38362;-80
2021/06/11 09:31:43;;;;;;;9.32;8.10;;;;;;;;;;5059211;28;37855;-82
2021/06/11 09:34:20;;;;;;;11.45;8.32;;;;;;;;;;5058011;28;40740;-82
2021/06/11 09:37:06;;;;;;;8.88;7.88;;;;;;;;;;5055404;27;38231;-80
2021/06/11 09:39:42;;;;;;;10.85;9.57;;;;;;;;;;5058068;28;47494;-81
2021/06/11 09:42:09;;;;;;;8.95;7.97;;;;;;;;;;5060878;27;38666;-82
2021/06/11 09:44:35;;;;;;;10.15;9.15;;;;;;;;;;5040441;28;37881;-82
2021/06/11 09:47:05;;;;;;;12.68;10.13;;;;;;;;;;5055784;27;37640;-83
2021/06/11 09:49:41;;;;;;;10.52;9.18;;;;;;;;;;5051374;27;48504;-81
2021/06/11 09:52:12;;;;;;;9.77;8.18;;;;;;;;;;5059979;28;38067;-81
2021/06/11 09:54:39;;;;;;;12.68;9.35;;;;;;;;;;5068886;28;38500;-80
2021/06/11 09:57:18;;;;;;;10.00;8.82;;;;;;;;;;5042505;28;39847;-79
2021/06/11 09:59:45;;;;;;;12.65;10.05;;;;;;;;;;5061344;28;38110;-83
2021/06/11 10:02:17;;;;;;;12.73;9.98;;;;;;;;;;5045893;27;36788;-81
2021/06/11 10:04:45;;;;;;;11.35;8.48;;;;;;;;;;5067914;27;38081;-81
2021/06/11 10:07:13;;;;;;;9.73;8.48;;;;;;;;;;5069314;27;37753;-83
2021/06/11 10:09:39;;;;;;;8.68;7.53;;;;;;;;;;5067731;28;37473;-83
2021/06/11 10:12:06;;;;;;;12.95;9.90;;;;;;;;;;5066358;27;36833;-83
2021/06/11 10:14:36;;;;;;;11.85;10.52;;;;;;;;;;5058603;28;39125;-83
2021/06/11 10:17:03;;;;;;;9.15;7.88;;;;;;;;;;5056291;27;38944;-83
2021/06/11 10:19:32;;;;;;;12.73;9.45;;;;;;;;;;5065548;28;39088;-81
2021/06/11 10:22:00;;;;;;;11.40;8.75;;;;;;;;;;5064846;28;36642;-81
2021/06/11 10:24:31;;;;;;;12.35;8.68;;;;;;;;;;5059170;28;43009;-82
2021/06/11 10:26:57;;;;;;;10.52;7.93;;;;;;;;;;5056380;28;39356;-79
2021/06/11 10:29:24;;;;;;;10.45;8.23;;;;;;;;;;5060467;27;38609;-80
2021/06/11 10:31:50;;;;;;;14.20;8.68;;;;;;;;;;5061048;28;37408;-81
2021/06/11 10:34:17;;;;;;;9.88;7.85;;;;;;;;;;5061391;27;39538;-80
2021/06/11 10:36:45;;;;;;;11.18;8.70;;;;;;;;;;5072141;28;35353;-81
2021/06/11 10:39:12;;;;;;;11.70;9.48;;;;;;;;;;5059561;27;38279;-81
2021/06/11 10:41:57;;;;;;;11.13;9.85;;;;;;;;;;5051935;28;36483;-81
2021/06/11 10:44:31;;;;;;;10.38;8.75;;;;;;;;;;5056230;28;39815;-81
2021/06/11 10:47:16;;;;;;;11.43;9.20;;;;;;;;;;5053420;28;38815;-79
2021/06/11 10:50:03;;;;;;;10.02;8.90;;;;;;;;;;5060893;27;49133;-80
2021/06/11 10:52:32;;;;;;;12.95;9.75;;;;;;;;;;5030264;28;47603;-80
2021/06/11 10:55:15;;;;;;;11.20;9.15;;;;;;;;;;5060691;28;38103;-83
2021/06/11 10:58:01;;;;;;;14.63;11.43;;;;;;;;;;5060665;28;47056;-81
2021/06/11 11:00:31;;;;;;;12.38;10.57;;;;;;;;;;5040347;27;47332;-82
2021/06/11 11:02:59;;;;;;;11.65;9.40;;;;;;;;;;5056731;28;39718;-82
2021/06/11 11:05:32;;;;;;;12.65;9.50;;;;;;;;;;5049911;28;38038;-81
2021/06/11 11:07:59;;;;;;;12.13;9.27;;;;;;;;;;5048561;28;39165;-81
2021/06/11 11:10:39;;;;;;;12.10;10.63;;;;;;;;;;5055150;27;39266;-82
2021/06/11 11:13:06;;;;;;;13.70;12.23;;;;;;;;;;5053963;27;36382;-80
2021/06/11 11:15:36;;;;;;;13.73;11.43;;;;;;;;;;5057757;27;39205;-81
2021/06/11 11:18:03;;;;;;;12.25;10.85;;;;;;;;;;5053225;27;38790;-82
2021/06/11 11:20:31;;;;;;;12.13;10.90;;;;;;;;;;5059812;28;38767;-82
2021/06/11 11:22:59;;;;;;;11.90;9.65;;;;;;;;;;5052513;28;38235;-81
2021/06/11 11:25:26;;;;;;;13.48;12.07;;;;;;;;;;5055182;28;39740;-82
2021/06/11 11:27:54;;;;;;;11.77;10.52;;;;;;;;;;5056521;27;39881;-82
2021/06/11 11:30:23;;;;;;;13.35;10.73;;;;;;;;;;5055337;27;38698;-82
2021/06/11 11:32:50;;;;;;;12.52;9.88;;;;;;;;;;5054346;28;37556;-82
2021/06/11 11:35:18;;;;;;;12.98;11.18;;;;;;;;;;5060675;28;40677;-80
2021/06/11 11:37:45;;;;;;;10.02;9.00;;;;;;;;;;5069464;28;41112;-82
2021/06/11 11:40:12;;;;;;;11.00;9.50;;;;;;;;;;5050620;27;39093;-81
2021/06/11 11:42:38;;;;;;;10.02;9.05;;;;;;;;;;5063397;27;36997;-80
2021/06/11 11:45:05;;;;;;;11.93;9.40;;;;;;;;;;5054071;27;39235;-80
2021/06/11 11:47:31;;;;;;;9.95;8.95;;;;;;;;;;5051535;28;47838;-80
2021/06/11 11:49:58;;;;;;;11.15;9.20;;;;;;;;;;5059259;28;39470;-81
2021/06/11 11:52:24;;;;;;;9.45;8.48;;;;;;;;;;5080334;28;37916;-80
2021/06/11 11:54:51;;;;;;;8.00;6.80;;;;;;;;;;5062791;28;39608;-81
2021/06/11 11:57:20;;;;;;;7.55;6.03;;;;;;;;;;5042153;28;39163;-81
2021/06/11 11:59:46;;;;;;;10.85;8.63;;;;;;;;;;5057344;28;38504;-81
2021/06/11 12:02:14;;;;;;;9.10;6.60;;;;;;;;;;5053584;27;37634;-81
2021/06/11 12:04:43;;;;;;;10.50;8.25;;;;;;;;;;5050732;27;40051;-80
2021/06/11 12:07:09;;;;;;;10.40;9.30;;;;;;;;;;5055970;28;37283;-80
2021/06/11 12:09:36;;;;;;;11.82;10.63;;;;;;;;;;5054821;28;38722;-79
2021/06/11 12:12:02;;;;;;;12.55;11.25;;;;;;;;;;5058490;27;37832;-81
2021/06/11 12:14:31;;;;;;;11.25;10.15;;;;;;;;;;5065026;28;39168;-82
2021/06/11 12:16:58;;;;;;;13.18;11.77;;;;;;;;;;5054028;28;39453;-82
2021/06/11 12:19:24;;;;;;;12.95;11.13;;;;;;;;;;5050050;28;39367;-82
2021/06/11 12:21:51;;;;;;;13.20;11.63;;;;;;;;;;5044105;28;37288;-81
2021/06/11 12:24:20;;;;;;;17.75;11.40;;;;;;;;;;5047945;27;38559;-81
2021/06/11 12:26:47;;;;;;;14.50;11.02;;;;;;;;;;5054537;28;38749;-82
2021/06/11 12:29:15;;;;;;;17.02;12.85;;;;;;;;;;5063165;28;40827;-80
2021/06/11 12:31:41;;;;;;;16.60;13.85;;;;;;;;;;5062068;28;37382;-79
2021/06/11 12:34:08;;;;;;;19.48;14.20;;;;;;;;;;5065720;27;39123;-79
2021/06/11 12:36:34;;;;;;;18.58;13.43;;;;;;;;;;5061698;28;37213;-81
2021/06/11 12:39:01;;;;;;;16.27;12.63;;;;;;;;;;5061446;28;38752;-80
2021/06/11 12:41:28;;;;;;;16.17;12.32;;;;;;;;;;5055541;27;37894;-78
2021/06/11 12:46:40;;;;;;;14.57;11.15;;;;;;;;;;5047954;27;49190;-79
2021/06/11 12:49:06;;;;;;;9.90;7.53;;;;;;;;;;5051870;27;37852;-80
2021/06/11 12:51:33;;;;;;;7.45;5.75;;;;;;;;;;5050688;28;38984;-79
2021/06/11 12:53:59;;;;;;;6.40;5.55;;;;;;;;;;5057272;28;41157;-79
2021/06/11 12:56:26;;;;;;;8.07;5.68;;;;;;;;;;5056159;27;39633;-81
2021/06/11 12:58:52;;;;;;;7.18;5.75;;;;;;;;;;5053153;28;39517;-79
2021/06/11 13:01:19;;;;;;;5.60;4.57;;;;;;;;;;5048698;28;37045;-81
2021/06/11 13:03:45;;;;;;;6.65;4.82;;;;;;;;;;5051574;28;39984;-80
2021/06/11 13:06:12;;;;;;;6.13;4.53;;;;;;;;;;5058523;28;38412;-78
2021/06/11 13:08:38;;;;;;;5.82;4.70;;;;;;;;;;5056304;28;38740;-80
2021/06/11 13:11:05;;;;;;;6.65;4.00;;;;;;;;;;5061360;27;37268;-81
2021/06/11 13:13:31;;;;;;;6.43;4.38;;;;;;;;;;5063125;28;39559;-79
2021/06/11 13:15:57;;;;;;;6.22;4.30;;;;;;;;;;5062833;28;40071;-80
2021/06/11 13:18:24;;;;;;;8.35;4.82;;;;;;;;;;5061034;27;38543;-77
2021/06/11 13:20:51;;;;;;;5.50;5.00;;;;;;;;;;5062672;27;37957;-80
2021/06/11 13:23:17;;;;;;;6.25;3.80;;;;;;;;;;5062517;28;39716;-81
2021/06/11 13:25:43;;;;;;;6.40;4.88;;;;;;;;;;5055381;28;39966;-78
2021/06/11 13:28:10;;;;;;;7.20;3.70;;;;;;;;;;5063766;27;39189;-78
2021/06/11 13:30:37;;;;;;;6.35;4.28;;;;;;;;;;5060820;28;37885;-79
2021/06/11 13:33:03;;;;;;;5.95;4.80;;;;;;;;;;5060180;27;20045;-79
2021/06/11 13:35:30;;;;;;;4.88;4.28;;;;;;;;;;5062257;27;38698;-77
2021/06/11 13:37:56;;;;;;;6.60;4.38;;;;;;;;;;5063046;28;38047;-79
2021/06/11 13:40:22;;;;;;;7.25;4.85;;;;;;;;;;5062138;28;36599;-79
2021/06/11 13:42:49;;;;;;;4.40;3.63;;;;;;;;;;5056285;28;39411;-77
2021/06/11 13:45:16;;;;;;;10.02;5.35;;;;;;;;;;5050961;28;40201;-78
2021/06/11 13:47:46;;;;;;;6.80;4.85;;;;;;;;;;5060641;27;39309;-77
2021/06/11 13:50:17;;;;;;;6.05;4.55;;;;;;;;;;5048645;27;38202;-79
2021/06/11 13:52:44;;;;;;;5.27;4.77;;;;;;;;;;5056756;28;39562;-77
2021/06/11 13:55:11;;;;;;;6.25;5.28;;;;;;;;;;5044272;28;38849;-80
2021/06/11 13:57:37;;;;;;;5.90;5.40;;;;;;;;;;5078497;27;38707;-78
2021/06/11 14:00:08;;;;;;;7.63;5.15;;;;;;;;;;5058552;27;37699;-81
2021/06/11 14:02:35;;;;;;;5.30;4.00;;;;;;;;;;5057689;28;47929;-77
2021/06/11 14:05:01;;;;;;;4.80;4.30;;;;;;;;;;5056437;28;38595;-79
2021/06/11 14:07:28;;;;;;;8.68;6.30;;;;;;;;;;5063850;27;47351;-79
2021/06/11 14:09:54;;;;;;;11.38;6.03;;;;;;;;;;5057870;27;38101;-79
2021/06/11 14:12:20;;;;;;;7.00;5.88;;;;;;;;;;5049665;27;38777;-79
2021/06/11 14:14:47;;;;;;;8.63;7.35;;;;;;;;;;5062125;27;39150;-79
2021/06/11 14:17:14;;;;;;;11.23;8.55;;;;;;;;;;5060729;27;38496;-78
2021/06/11 14:19:40;;;;;;;9.00;8.00;;;;;;;;;;5061419;27;35787;-78
2021/06/11 14:22:07;;;;;;;9.10;8.20;;;;;;;;;;5053932;28;39173;-80
2021/06/11 14:24:33;;;;;;;8.30;7.43;;;;;;;;;;5053644;27;39541;-80
2021/06/11 14:27:00;;;;;;;10.85;9.52;;;;;;;;;;5057011;27;39162;-78
2021/06/11 14:29:26;;;;;;;12.15;10.50;;;;;;;;;;5057945;28;38094;-78
2021/06/11 14:31:53;;;;;;;14.40;10.95;;;;;;;;;;5052575;28;39366;-79
2021/06/11 14:34:19;;;;;;;12.05;9.88;;;;;;;;;;5057612;27;39229;-80
2021/06/11 14:36:45;;;;;;;14.93;10.38;;;;;;;;;;5057676;27;39443;-77